Time;durP1;ratioP1;P1;durP2;ratioP2;P2;SDS_P1;SDS_P2;PMS_P1;PMS_P2;Temp;Humidity;BMP_temperature;BMP_pressure;BME280_temperature;BME280_humidity;BME280_pressure;Samples;Min_cycle;Max_cycle;Signal;HPM_P1;HPM_P2
2023/12/08 00:00:18;;;;;;;21.52;14.35;;;2.00;91.80;;;;;;5054048;28;20484;-83
2023/12/08 00:02:44;;;;;;;21.40;12.80;;;2.00;91.70;;;;;;5021002;28;20033;-82
2023/12/08 00:05:09;;;;;;;25.25;13.65;;;2.00;91.70;;;;;;5070125;28;20124;-81
2023/12/08 00:07:36;;;;;;;20.70;13.57;;;1.90;91.50;;;;;;5070610;28;20140;-82
2023/12/08 00:10:02;;;;;;;20.23;13.65;;;2.00;91.90;;;;;;5073798;28;20048;-82
2023/12/08 00:12:28;;;;;;;19.48;13.48;;;2.00;91.60;;;;;;5073850;28;20052;-83
2023/12/08 00:14:54;;;;;;;24.15;13.30;;;2.00;91.40;;;;;;5024067;28;20098;-82
2023/12/08 00:17:20;;;;;;;20.45;12.50;;;1.90;91.20;;;;;;5040535;28;20039;-82
2023/12/08 00:19:46;;;;;;;20.73;12.93;;;2.00;91.40;;;;;;5056850;28;20119;-81
2023/12/08 00:22:11;;;;;;;18.30;11.50;;;2.00;91.30;;;;;;5040353;28;20037;-82
2023/12/08 00:24:37;;;;;;;20.10;12.77;;;2.00;91.70;;;;;;5040700;28;20504;-82
2023/12/08 00:27:04;;;;;;;19.38;13.05;;;2.00;91.80;;;;;;5057286;28;20077;-82
2023/12/08 00:29:29;;;;;;;20.33;12.27;;;2.10;91.90;;;;;;5023724;28;20141;-81
2023/12/08 00:31:55;;;;;;;19.80;12.02;;;2.00;91.70;;;;;;5040251;28;20095;-82
2023/12/08 00:34:20;;;;;;;18.88;12.68;;;2.00;91.70;;;;;;5056599;28;20056;-81
2023/12/08 00:36:46;;;;;;;17.90;12.35;;;1.90;91.60;;;;;;5040105;28;20102;-83
2023/12/08 00:39:12;;;;;;;18.70;12.65;;;1.90;91.40;;;;;;5056199;28;20033;-82
2023/12/08 00:41:38;;;;;;;17.27;11.55;;;1.90;91.40;;;;;;5040025;28;20033;-83
2023/12/08 00:44:04;;;;;;;15.88;11.05;;;1.90;91.10;;;;;;5039992;28;20447;-83
2023/12/08 00:46:30;;;;;;;21.27;12.13;;;1.90;91.30;;;;;;5039920;28;20040;-82
2023/12/08 00:48:55;;;;;;;18.13;11.98;;;1.90;91.30;;;;;;5039980;28;20036;-82
2023/12/08 00:51:21;;;;;;;18.42;11.43;;;1.90;91.10;;;;;;5056352;28;20041;-83
2023/12/08 00:53:47;;;;;;;18.33;12.40;;;2.00;91.30;;;;;;5056286;28;20041;-82
2023/12/08 00:56:13;;;;;;;21.33;12.00;;;2.00;91.10;;;;;;5067442;28;20033;-84
2023/12/08 00:58:38;;;;;;;18.27;12.32;;;2.00;91.10;;;;;;5069945;28;20033;-84
2023/12/08 01:01:04;;;;;;;16.35;11.30;;;1.90;91.20;;;;;;5062993;28;20089;-82
2023/12/08 01:03:30;;;;;;;17.35;11.20;;;2.00;91.30;;;;;;5085673;28;20484;-82
2023/12/08 01:05:56;;;;;;;20.27;11.95;;;2.00;91.40;;;;;;5039551;28;20074;-84
2023/12/08 01:08:22;;;;;;;19.48;12.75;;;2.00;91.60;;;;;;5039942;28;20045;-83
2023/12/08 01:10:48;;;;;;;18.48;12.25;;;2.00;91.60;;;;;;5065573;28;20412;-82
2023/12/08 01:13:14;;;;;;;15.98;11.07;;;2.00;91.50;;;;;;5092729;28;20039;-82
2023/12/08 01:15:39;;;;;;;18.77;11.98;;;2.00;91.50;;;;;;5076118;28;20036;-82
2023/12/08 01:18:05;;;;;;;17.88;12.13;;;2.00;91.40;;;;;;5076189;28;20040;-83
2023/12/08 01:20:31;;;;;;;15.85;10.98;;;2.00;91.30;;;;;;5112712;27;20068;-82
2023/12/08 01:22:57;;;;;;;17.85;11.65;;;2.00;91.40;;;;;;5039304;28;20043;-82
2023/12/08 01:25:22;;;;;;;18.85;12.25;;;2.00;91.40;;;;;;5055988;28;20045;-84
2023/12/08 01:27:48;;;;;;;18.65;11.95;;;2.00;91.50;;;;;;5056122;28;20047;-82
2023/12/08 01:30:14;;;;;;;19.08;11.95;;;2.00;91.60;;;;;;5072396;28;20400;-82
2023/12/08 01:32:39;;;;;;;20.25;12.20;;;2.00;91.40;;;;;;5055986;28;20033;-83
2023/12/08 01:35:05;;;;;;;16.33;11.07;;;2.00;91.30;;;;;;5039198;28;20496;-82
2023/12/08 01:37:31;;;;;;;17.20;11.20;;;2.00;91.40;;;;;;5038834;28;20037;-82
2023/12/08 01:39:56;;;;;;;18.10;11.45;;;2.00;91.20;;;;;;5055498;28;20036;-82
2023/12/08 01:42:22;;;;;;;17.55;11.35;;;2.00;91.30;;;;;;5055699;28;20079;-83
2023/12/08 01:44:48;;;;;;;18.35;12.55;;;2.00;91.50;;;;;;5056858;28;20032;-85
2023/12/08 01:47:14;;;;;;;20.75;12.70;;;2.00;91.20;;;;;;5055621;28;20553;-82
2023/12/08 01:49:40;;;;;;;18.48;12.48;;;2.00;91.50;;;;;;5055691;28;20389;-82
2023/12/08 01:52:07;;;;;;;20.23;12.50;;;2.00;91.40;;;;;;5039030;28;20179;-82
2023/12/08 01:54:34;;;;;;;16.23;11.55;;;2.00;91.30;;;;;;5034618;28;20037;-82
2023/12/08 01:57:01;;;;;;;16.25;11.10;;;1.90;91.40;;;;;;5085454;28;20040;-82
2023/12/08 01:59:27;;;;;;;17.65;12.52;;;1.90;91.40;;;;;;5051247;28;20037;-82
2023/12/08 02:01:53;;;;;;;18.60;12.02;;;2.00;91.40;;;;;;5051220;28;20047;-83
2023/12/08 02:04:19;;;;;;;19.88;12.25;;;1.90;91.40;;;;;;5052140;28;20215;-82
2023/12/08 02:06:44;;;;;;;21.13;12.57;;;2.00;91.50;;;;;;5035445;28;20499;-82
2023/12/08 02:09:10;;;;;;;19.55;13.25;;;1.90;91.40;;;;;;5085473;28;20349;-82
2023/12/08 02:11:36;;;;;;;17.20;11.70;;;2.00;91.60;;;;;;5068657;28;20041;-82
2023/12/08 02:14:03;;;;;;;19.45;13.30;;;2.00;91.30;;;;;;5035246;28;20048;-82
2023/12/08 02:16:55;;;;;;;18.77;12.55;;;1.90;91.20;;;;;;5068889;28;20041;-82
2023/12/08 02:19:22;;;;;;;20.13;12.48;;;1.90;91.40;;;;;;5035685;28;20040;-82
2023/12/08 02:21:47;;;;;;;21.35;13.18;;;1.90;91.40;;;;;;5051771;28;20037;-83
2023/12/08 02:24:13;;;;;;;19.38;13.27;;;1.90;91.40;;;;;;5051945;28;20041;-82
2023/12/08 02:26:39;;;;;;;21.17;13.25;;;1.90;91.40;;;;;;5083674;28;20131;-81
2023/12/08 02:29:09;;;;;;;21.35;13.93;;;1.90;91.60;;;;;;5055032;28;20044;-81
2023/12/08 02:31:48;;;;;;;22.83;13.82;;;1.90;91.40;;;;;;5039544;28;20384;-83
2023/12/08 02:34:19;;;;;;;20.63;11.88;;;2.00;91.60;;;;;;5054828;28;20048;-82
2023/12/08 02:36:46;;;;;;;21.05;13.27;;;1.90;91.70;;;;;;5055275;28;20037;-82
2023/12/08 02:39:13;;;;;;;22.60;14.23;;;1.90;91.60;;;;;;5054925;28;20040;-82
2023/12/08 02:41:41;;;;;;;20.30;13.48;;;1.90;91.60;;;;;;5071478;28;20045;-82
2023/12/08 02:44:07;;;;;;;21.33;13.75;;;1.90;91.50;;;;;;5071970;28;20063;-81
2023/12/08 02:46:33;;;;;;;20.27;13.27;;;1.90;91.50;;;;;;5071724;28;20489;-82
2023/12/08 02:48:58;;;;;;;22.80;15.18;;;1.90;91.50;;;;;;5038217;28;20036;-82
2023/12/08 02:51:24;;;;;;;21.27;13.65;;;1.90;91.50;;;;;;5071637;28;20036;-83
2023/12/08 02:53:50;;;;;;;20.50;13.80;;;1.90;91.60;;;;;;5054871;28;20044;-82
2023/12/08 02:56:15;;;;;;;21.55;13.75;;;1.90;91.60;;;;;;5038566;28;20127;-82
2023/12/08 02:58:41;;;;;;;22.27;14.57;;;1.90;91.40;;;;;;5034632;28;20520;-82
2023/12/08 03:01:07;;;;;;;23.92;15.07;;;1.90;91.60;;;;;;5053362;28;20036;-82
2023/12/08 03:03:32;;;;;;;24.08;15.15;;;1.90;91.60;;;;;;5054856;28;20090;-83
2023/12/08 03:05:58;;;;;;;22.00;14.43;;;1.90;91.60;;;;;;5054482;28;20083;-82
2023/12/08 03:08:24;;;;;;;22.38;16.10;;;1.90;91.70;;;;;;5037995;28;20094;-82
2023/12/08 03:10:49;;;;;;;24.52;15.73;;;1.90;91.80;;;;;;5056161;28;20475;-83
2023/12/08 03:13:15;;;;;;;23.05;14.52;;;1.90;91.90;;;;;;5041781;28;20090;-82
2023/12/08 03:15:41;;;;;;;22.48;15.13;;;2.00;91.90;;;;;;5058951;28;20036;-82
2023/12/08 03:18:06;;;;;;;21.50;14.30;;;1.90;91.90;;;;;;5041887;28;20492;-82
2023/12/08 03:20:32;;;;;;;22.58;14.95;;;1.90;92.00;;;;;;5058464;28;20037;-82
2023/12/08 03:22:58;;;;;;;24.00;14.77;;;1.90;92.00;;;;;;5074953;28;20548;-84
2023/12/08 03:25:23;;;;;;;24.27;15.35;;;1.90;92.00;;;;;;5041915;28;20373;-82
2023/12/08 03:27:49;;;;;;;23.67;15.48;;;1.90;92.00;;;;;;5074701;28;20090;-82
2023/12/08 03:30:15;;;;;;;21.95;15.18;;;1.90;92.00;;;;;;5074625;28;20076;-82
2023/12/08 03:32:41;;;;;;;22.27;15.48;;;1.90;92.00;;;;;;5041343;28;20040;-82
2023/12/08 03:35:07;;;;;;;23.52;16.13;;;1.90;92.00;;;;;;5074701;28;20401;-82
2023/12/08 03:37:32;;;;;;;22.80;14.65;;;1.90;92.00;;;;;;5041153;28;20037;-83
2023/12/08 03:39:58;;;;;;;23.88;14.93;;;1.90;92.10;;;;;;5041520;28;20040;-84
2023/12/08 03:42:24;;;;;;;21.90;15.00;;;1.80;92.20;;;;;;5021376;28;20033;-82
2023/12/08 03:44:50;;;;;;;23.35;16.08;;;1.80;92.30;;;;;;5037986;28;20041;-83
2023/12/08 03:47:16;;;;;;;24.55;16.20;;;1.80;92.40;;;;;;5037709;28;20037;-82
2023/12/08 03:49:42;;;;;;;29.85;17.35;;;1.80;92.40;;;;;;5037716;28;20489;-83
2023/12/08 03:52:08;;;;;;;23.83;15.88;;;1.80;92.50;;;;;;5054218;28;20055;-82
2023/12/08 03:54:33;;;;;;;24.30;16.20;;;1.80;92.60;;;;;;5021124;28;20044;-83
2023/12/08 03:56:59;;;;;;;25.23;16.08;;;1.80;92.60;;;;;;5021374;28;20051;-82
2023/12/08 03:59:25;;;;;;;24.55;15.95;;;1.80;92.70;;;;;;5041407;28;20032;-82
2023/12/08 04:01:53;;;;;;;24.83;16.55;;;1.70;92.80;;;;;;5057765;28;20127;-81
2023/12/08 04:04:19;;;;;;;23.27;16.33;;;1.70;92.90;;;;;;5074030;28;20075;-79
2023/12/08 04:06:45;;;;;;;28.02;16.85;;;1.70;93.10;;;;;;5057322;28;20036;-80
2023/12/08 04:09:11;;;;;;;26.48;16.27;;;1.70;93.30;;;;;;5046171;28;20095;-81
2023/12/08 04:11:36;;;;;;;27.58;17.33;;;1.70;93.30;;;;;;5037623;28;20056;-79
2023/12/08 04:14:02;;;;;;;27.08;17.65;;;1.70;93.40;;;;;;5021899;28;20037;-79
2023/12/08 04:16:28;;;;;;;27.08;16.08;;;1.70;93.30;;;;;;5037884;28;20080;-80
2023/12/08 04:18:53;;;;;;;27.55;18.60;;;1.70;93.40;;;;;;5054149;28;20037;-79
2023/12/08 04:21:19;;;;;;;25.48;17.38;;;1.70;93.60;;;;;;5040647;28;20044;-82
2023/12/08 04:23:45;;;;;;;28.85;18.85;;;1.60;93.80;;;;;;5040203;28;20040;-81
2023/12/08 04:26:11;;;;;;;24.33;15.93;;;1.60;93.70;;;;;;5062842;28;20481;-80
2023/12/08 04:28:38;;;;;;;30.30;18.83;;;1.60;93.80;;;;;;5070643;28;20052;-80
2023/12/08 04:31:04;;;;;;;30.00;17.98;;;1.60;93.90;;;;;;5088559;28;20083;-80
2023/12/08 04:33:30;;;;;;;29.83;17.88;;;1.60;94.10;;;;;;5093636;28;20052;-81
2023/12/08 04:35:57;;;;;;;30.02;18.00;;;1.60;94.10;;;;;;5093961;28;20090;-81
2023/12/08 04:38:22;;;;;;;28.77;17.80;;;1.60;94.20;;;;;;5094530;28;20044;-80
2023/12/08 04:40:48;;;;;;;31.52;19.42;;;1.50;94.40;;;;;;5077352;28;20040;-80
2023/12/08 04:43:14;;;;;;;29.50;18.80;;;1.50;94.40;;;;;;5051279;28;20119;-80
2023/12/08 04:45:41;;;;;;;31.80;18.45;;;1.50;94.50;;;;;;5037419;28;20481;-80
2023/12/08 04:48:07;;;;;;;31.40;19.08;;;1.50;94.60;;;;;;5037833;28;20107;-81
2023/12/08 04:50:33;;;;;;;27.13;18.42;;;1.40;94.60;;;;;;5080912;28;20040;-79
2023/12/08 04:52:58;;;;;;;30.35;18.63;;;1.50;94.70;;;;;;5079797;28;20083;-81
2023/12/08 04:55:24;;;;;;;29.75;18.35;;;1.40;94.60;;;;;;5078824;28;20044;-80
2023/12/08 04:57:49;;;;;;;32.47;19.08;;;1.40;94.30;;;;;;5094703;28;20039;-80
2023/12/08 05:00:16;;;;;;;32.10;19.30;;;1.40;94.30;;;;;;5059348;28;20036;-80
2023/12/08 05:02:42;;;;;;;36.40;20.40;;;1.40;94.30;;;;;;5038924;28;20037;-79
2023/12/08 05:05:08;;;;;;;33.03;20.17;;;1.40;94.20;;;;;;5037252;28;20465;-79
2023/12/08 05:07:33;;;;;;;30.25;19.50;;;1.40;94.20;;;;;;5037904;28;20044;-80
2023/12/08 05:10:00;;;;;;;29.75;18.85;;;1.40;94.20;;;;;;5025583;28;20067;-80
2023/12/08 05:12:26;;;;;;;33.50;19.10;;;1.40;94.20;;;;;;5056403;28;20492;-81
2023/12/08 05:14:51;;;;;;;34.22;19.90;;;1.40;94.20;;;;;;5055740;28;20044;-79
2023/12/08 05:17:17;;;;;;;33.15;20.23;;;1.30;94.10;;;;;;5072037;28;20107;-80
2023/12/08 05:19:42;;;;;;;40.08;21.83;;;1.30;94.20;;;;;;5046717;28;20040;-81
2023/12/08 05:22:08;;;;;;;31.35;19.65;;;1.30;94.30;;;;;;5019886;28;20033;-80
2023/12/08 05:24:34;;;;;;;33.65;19.80;;;1.30;94.30;;;;;;5038707;28;20037;-80
2023/12/08 05:26:59;;;;;;;37.33;20.58;;;1.30;94.40;;;;;;5036170;28;20044;-80
2023/12/08 05:29:25;;;;;;;33.40;19.25;;;1.20;94.40;;;;;;5064457;28;20040;-82
2023/12/08 05:31:51;;;;;;;31.35;19.33;;;1.20;94.60;;;;;;5076104;28;20043;-80
2023/12/08 05:34:17;;;;;;;38.05;21.75;;;1.20;94.90;;;;;;5091542;28;20055;-82
2023/12/08 05:36:42;;;;;;;36.53;20.77;;;1.10;94.90;;;;;;5070176;28;20117;-79
2023/12/08 05:39:09;;;;;;;33.75;20.30;;;1.10;95.00;;;;;;5059811;28;20121;-80
2023/12/08 05:41:35;;;;;;;38.63;21.63;;;1.10;95.00;;;;;;5091809;27;20048;-79
2023/12/08 05:44:01;;;;;;;35.67;21.58;;;1.10;95.30;;;;;;5071228;28;20044;-81
2023/12/08 05:46:27;;;;;;;35.22;20.58;;;1.10;95.40;;;;;;5075687;28;20047;-81
2023/12/08 05:48:53;;;;;;;38.33;22.98;;;1.10;95.50;;;;;;5058731;28;20038;-81
2023/12/08 05:51:19;;;;;;;33.72;20.92;;;1.10;95.50;;;;;;5058833;28;20040;-79
2023/12/08 05:53:44;;;;;;;31.60;20.02;;;1.10;95.50;;;;;;5059141;28;20660;-80
2023/12/08 05:56:11;;;;;;;37.22;21.27;;;1.10;95.60;;;;;;5055383;28;20059;-81
2023/12/08 05:58:37;;;;;;;32.58;19.98;;;1.10;95.60;;;;;;5038648;28;20040;-81
2023/12/08 06:01:03;;;;;;;39.58;22.13;;;1.10;95.50;;;;;;5054792;28;20040;-80
2023/12/08 06:03:28;;;;;;;37.60;21.25;;;1.10;95.40;;;;;;5051351;28;20040;-80
2023/12/08 06:05:54;;;;;;;33.80;20.88;;;1.10;95.50;;;;;;5074938;28;20067;-79
2023/12/08 06:08:20;;;;;;;35.13;21.33;;;1.10;95.40;;;;;;5073484;28;20032;-81
2023/12/08 06:10:46;;;;;;;33.63;20.95;;;1.10;95.60;;;;;;5055029;28;20037;-80
2023/12/08 06:13:13;;;;;;;33.90;21.45;;;1.00;95.70;;;;;;5071843;28;20040;-80
2023/12/08 06:15:39;;;;;;;35.63;22.73;;;1.10;95.80;;;;;;5054531;28;20064;-81
2023/12/08 06:18:05;;;;;;;41.55;22.50;;;1.10;95.80;;;;;;5038375;28;20404;-79
2023/12/08 06:20:30;;;;;;;40.38;22.80;;;1.10;95.90;;;;;;5037190;28;20485;-80
2023/12/08 06:22:56;;;;;;;37.90;22.45;;;1.10;96.00;;;;;;5068102;28;20041;-80
2023/12/08 06:25:22;;;;;;;37.63;22.27;;;1.10;96.00;;;;;;5085302;28;20037;-80
2023/12/08 06:27:47;;;;;;;36.97;20.95;;;1.10;96.10;;;;;;5051883;28;20098;-79
2023/12/08 06:30:13;;;;;;;33.97;21.90;;;1.10;95.90;;;;;;5083178;28;20044;-81
2023/12/08 06:32:39;;;;;;;36.30;21.70;;;1.10;96.10;;;;;;5054585;28;20416;-81
2023/12/08 06:35:05;;;;;;;38.38;22.02;;;1.10;96.10;;;;;;5054530;28;20040;-81
2023/12/08 06:37:31;;;;;;;42.38;22.63;;;1.10;96.10;;;;;;5037652;28;20041;-82
2023/12/08 06:39:56;;;;;;;42.03;23.20;;;1.10;96.40;;;;;;5038027;28;20037;-82
2023/12/08 06:42:22;;;;;;;44.22;23.35;;;1.10;96.30;;;;;;5054544;28;20072;-82
2023/12/08 06:44:48;;;;;;;41.15;22.80;;;1.10;96.20;;;;;;5054840;28;20045;-79
2023/12/08 06:47:13;;;;;;;41.75;22.88;;;1.10;96.40;;;;;;5057872;28;20032;-80
2023/12/08 06:49:39;;;;;;;36.97;20.90;;;1.10;96.40;;;;;;5041653;28;20106;-79
2023/12/08 06:52:05;;;;;;;39.58;22.92;;;1.10;96.30;;;;;;5058526;28;20439;-81
2023/12/08 06:54:31;;;;;;;33.72;20.58;;;1.10;96.30;;;;;;5058105;28;20098;-80
2023/12/08 06:56:57;;;;;;;39.35;22.15;;;1.10;96.30;;;;;;5038018;28;20393;-82
2023/12/08 06:59:22;;;;;;;33.42;20.50;;;1.10;96.30;;;;;;5064608;28;20074;-80
2023/12/08 07:01:48;;;;;;;37.10;22.98;;;1.10;96.20;;;;;;5075021;28;20037;-82
2023/12/08 07:04:14;;;;;;;34.70;21.05;;;1.10;96.30;;;;;;5041549;28;20044;-81
2023/12/08 07:06:40;;;;;;;40.83;22.85;;;1.10;96.20;;;;;;5041230;28;20043;-80
2023/12/08 07:09:07;;;;;;;35.85;22.60;;;1.10;96.30;;;;;;5058059;28;20045;-80
2023/12/08 07:11:33;;;;;;;39.75;23.55;;;1.20;96.30;;;;;;5074804;28;20080;-80
2023/12/08 07:13:58;;;;;;;38.90;22.75;;;1.10;96.30;;;;;;5041337;28;20514;-81
2023/12/08 07:16:24;;;;;;;39.53;22.83;;;1.20;96.30;;;;;;5040934;28;20082;-80
2023/12/08 07:18:50;;;;;;;40.65;23.42;;;1.10;96.30;;;;;;5074406;28;20036;-80
2023/12/08 07:21:15;;;;;;;44.10;23.73;;;1.20;96.30;;;;;;5074635;28;20048;-81
2023/12/08 07:23:42;;;;;;;41.90;22.77;;;1.20;96.30;;;;;;5057754;28;20036;-83
2023/12/08 07:26:10;;;;;;;37.80;23.17;;;1.20;96.30;;;;;;5057844;28;20044;-81
2023/12/08 07:28:36;;;;;;;40.40;23.13;;;1.20;96.30;;;;;;5057924;28;20040;-81
2023/12/08 07:31:02;;;;;;;39.45;21.58;;;1.10;96.30;;;;;;5057648;28;20043;-82
2023/12/08 07:33:27;;;;;;;38.35;21.95;;;1.20;96.40;;;;;;5040781;28;20052;-81
2023/12/08 07:35:53;;;;;;;45.05;24.02;;;1.20;96.40;;;;;;5073893;28;20135;-78
2023/12/08 07:38:19;;;;;;;41.22;23.92;;;1.20;96.40;;;;;;5057433;28;20055;-80
2023/12/08 07:40:45;;;;;;;39.15;24.15;;;1.20;96.30;;;;;;5074050;28;20041;-79
2023/12/08 07:43:11;;;;;;;41.30;22.58;;;1.20;96.40;;;;;;5040838;28;20127;-79
2023/12/08 07:45:37;;;;;;;38.80;23.77;;;1.20;96.40;;;;;;5073450;28;20484;-82
2023/12/08 07:48:03;;;;;;;36.65;21.55;;;1.20;96.40;;;;;;5056992;28;20127;-79
2023/12/08 07:50:29;;;;;;;39.72;23.70;;;1.20;96.50;;;;;;5053631;28;20475;-81
2023/12/08 07:52:55;;;;;;;38.88;23.63;;;1.20;96.40;;;;;;5073721;28;20040;-81
2023/12/08 07:55:20;;;;;;;36.95;22.60;;;1.20;96.40;;;;;;5073570;28;20041;-79
2023/12/08 07:57:46;;;;;;;38.25;23.70;;;1.20;96.40;;;;;;5055937;28;20063;-81
2023/12/08 08:00:12;;;;;;;44.63;24.92;;;1.20;96.40;;;;;;5107104;28;20041;-82
2023/12/08 08:02:38;;;;;;;35.45;22.30;;;1.20;96.40;;;;;;5056769;28;20039;-79
2023/12/08 08:05:07;;;;;;;38.28;23.60;;;1.20;96.40;;;;;;5056608;28;20040;-80
2023/12/08 08:07:33;;;;;;;44.47;25.15;;;1.20;96.40;;;;;;5077009;28;20036;-82
2023/12/08 08:09:58;;;;;;;40.40;23.65;;;1.30;96.40;;;;;;5077012;28;20515;-82
2023/12/08 08:12:24;;;;;;;43.28;25.08;;;1.30;96.40;;;;;;5075093;28;20036;-81
2023/12/08 08:14:50;;;;;;;43.25;25.15;;;1.20;96.40;;;;;;5073658;28;20032;-80
2023/12/08 08:17:15;;;;;;;40.28;24.80;;;1.20;96.40;;;;;;5040401;28;20348;-81
2023/12/08 08:19:41;;;;;;;41.63;24.23;;;1.20;96.40;;;;;;5073529;28;20123;-79
2023/12/08 08:22:08;;;;;;;40.08;24.83;;;1.20;96.40;;;;;;5040206;28;20119;-81
2023/12/08 08:24:33;;;;;;;38.95;24.20;;;1.20;96.50;;;;;;5056769;28;20123;-79
2023/12/08 08:27:00;;;;;;;43.17;25.45;;;1.20;96.50;;;;;;5057088;28;20148;-80
2023/12/08 08:29:26;;;;;;;45.45;24.55;;;1.20;96.50;;;;;;5057415;28;20071;-79
2023/12/08 08:31:52;;;;;;;44.28;25.98;;;1.20;96.50;;;;;;5040297;28;20476;-83
2023/12/08 08:34:18;;;;;;;43.22;26.00;;;1.20;96.60;;;;;;5056710;28;20519;-80
2023/12/08 08:36:44;;;;;;;39.88;23.88;;;1.20;96.60;;;;;;5073693;28;20083;-80
2023/12/08 08:39:10;;;;;;;42.63;25.30;;;1.20;96.60;;;;;;5040196;28;20068;-81
2023/12/08 08:41:36;;;;;;;39.90;23.80;;;1.30;96.60;;;;;;5073751;28;20483;-81
2023/12/08 08:44:01;;;;;;;43.10;25.20;;;1.30;96.60;;;;;;5056888;28;20037;-80
2023/12/08 08:46:28;;;;;;;43.28;25.15;;;1.30;96.70;;;;;;5056781;28;20396;-81
2023/12/08 08:48:54;;;;;;;44.28;25.88;;;1.30;96.60;;;;;;5040187;28;20083;-79
2023/12/08 08:51:21;;;;;;;42.35;23.52;;;1.30;96.50;;;;;;5057332;28;20471;-80
2023/12/08 08:53:49;;;;;;;42.97;24.88;;;1.20;96.60;;;;;;5073006;28;20088;-81
2023/12/08 08:56:16;;;;;;;40.47;23.98;;;1.20;96.60;;;;;;5024023;28;20038;-81
2023/12/08 08:58:41;;;;;;;40.38;24.05;;;1.20;96.60;;;;;;5056364;28;20032;-82
2023/12/08 09:01:07;;;;;;;45.33;26.02;;;1.20;96.60;;;;;;5056462;28;20555;-79
2023/12/08 09:03:33;;;;;;;39.03;23.73;;;1.20;96.50;;;;;;5056194;28;20400;-81
2023/12/08 09:05:59;;;;;;;42.70;25.20;;;1.20;96.60;;;;;;5091710;28;20124;-80
2023/12/08 09:08:24;;;;;;;39.67;23.33;;;1.20;96.70;;;;;;5092765;28;20039;-81
2023/12/08 09:10:50;;;;;;;43.10;24.95;;;1.20;96.60;;;;;;5076208;28;20036;-80
2023/12/08 09:13:16;;;;;;;40.88;22.70;;;1.20;96.70;;;;;;5077435;28;20036;-82
2023/12/08 09:15:43;;;;;;;41.15;24.33;;;1.20;96.70;;;;;;5045901;28;20045;-81
2023/12/08 09:18:09;;;;;;;42.47;24.77;;;1.20;96.80;;;;;;5041921;28;20040;-82
2023/12/08 09:20:38;;;;;;;39.80;25.27;;;1.20;96.80;;;;;;5057419;28;20072;-79
2023/12/08 09:23:05;;;;;;;44.13;26.52;;;1.20;96.90;;;;;;5074605;28;20123;-82
2023/12/08 09:25:31;;;;;;;41.38;24.98;;;1.30;96.90;;;;;;5057527;28;20044;-81
2023/12/08 09:27:57;;;;;;;39.83;22.95;;;1.20;96.90;;;;;;5056705;28;20040;-81
2023/12/08 09:30:23;;;;;;;42.20;25.75;;;1.30;97.00;;;;;;5056462;28;20040;-83
2023/12/08 09:32:51;;;;;;;46.50;25.45;;;1.30;97.00;;;;;;5039419;28;20042;-80
2023/12/08 09:35:18;;;;;;;44.08;24.48;;;1.30;97.00;;;;;;5056263;28;20127;-79
2023/12/08 09:37:43;;;;;;;43.00;25.40;;;1.40;97.00;;;;;;5084634;28;20384;-81
2023/12/08 09:40:13;;;;;;;47.22;27.00;;;1.40;97.10;;;;;;5074185;28;20040;-82
2023/12/08 09:42:52;;;;;;;54.83;28.52;;;1.40;97.00;;;;;;5065507;28;20040;-80
2023/12/08 09:45:18;;;;;;;47.30;27.77;;;1.50;97.00;;;;;;5090667;28;20048;-81
2023/12/08 09:47:47;;;;;;;38.55;24.08;;;1.50;97.10;;;;;;5043515;28;20048;-79
2023/12/08 09:50:13;;;;;;;44.17;26.27;;;1.50;97.10;;;;;;5055303;28;20070;-82
2023/12/08 09:52:40;;;;;;;45.65;26.88;;;1.50;97.10;;;;;;5073832;28;20115;-82
2023/12/08 09:55:06;;;;;;;45.25;25.45;;;1.60;97.20;;;;;;5057273;28;20055;-81
2023/12/08 09:57:34;;;;;;;41.85;24.05;;;1.50;97.20;;;;;;5070582;28;20040;-78
2023/12/08 10:00:07;;;;;;;46.38;26.00;;;1.60;97.10;;;;;;5053822;28;20044;-80
2023/12/08 10:02:33;;;;;;;41.85;24.65;;;1.60;97.10;;;;;;5073925;28;20048;-81
2023/12/08 10:04:59;;;;;;;49.65;26.58;;;1.60;97.10;;;;;;5055895;28;20641;-80
2023/12/08 10:07:31;;;;;;;42.05;24.90;;;1.60;97.20;;;;;;5078170;28;20140;-78
2023/12/08 10:10:01;;;;;;;47.60;26.73;;;1.60;97.10;;;;;;5090263;28;20528;-81
2023/12/08 10:12:27;;;;;;;47.40;26.10;;;1.60;97.30;;;;;;5052546;28;20441;-80
2023/12/08 10:14:58;;;;;;;47.97;26.27;;;1.60;97.30;;;;;;5061159;28;20500;-80
2023/12/08 10:17:24;;;;;;;49.72;26.83;;;1.60;97.30;;;;;;5074480;28;20075;-79
2023/12/08 10:19:53;;;;;;;45.45;25.92;;;1.60;97.40;;;;;;5054414;28;20144;-81
2023/12/08 10:22:19;;;;;;;46.78;26.50;;;1.70;97.30;;;;;;5059345;28;20503;-81
2023/12/08 10:24:45;;;;;;;43.97;26.52;;;1.60;97.30;;;;;;5061823;28;20051;-79
2023/12/08 10:27:11;;;;;;;45.55;26.83;;;1.60;97.30;;;;;;5058388;28;20090;-82
2023/12/08 10:29:37;;;;;;;45.33;26.65;;;1.70;97.30;;;;;;5055554;28;20175;-81
2023/12/08 10:32:04;;;;;;;48.00;26.75;;;1.70;97.30;;;;;;5096636;28;20090;-82
2023/12/08 10:34:31;;;;;;;47.80;27.38;;;1.70;97.30;;;;;;5044805;28;20131;-79
2023/12/08 10:36:57;;;;;;;53.08;25.15;;;1.80;97.20;;;;;;5060751;28;20067;-81
2023/12/08 10:39:24;;;;;;;54.10;28.05;;;1.80;97.20;;;;;;5057970;28;20040;-80
2023/12/08 10:41:53;;;;;;;50.72;27.25;;;1.80;97.10;;;;;;5068280;28;20954;-80
2023/12/08 10:44:20;;;;;;;53.55;28.17;;;1.80;97.20;;;;;;5063944;28;20036;-83
2023/12/08 10:46:48;;;;;;;49.20;26.70;;;1.80;97.30;;;;;;5078418;28;20457;-80
2023/12/08 10:49:21;;;;;;;56.50;37.05;;;1.80;97.30;;;;;;5071252;28;20391;-81
2023/12/08 10:51:48;;;;;;;54.25;28.75;;;1.80;97.30;;;;;;5078460;28;20043;-79
2023/12/08 10:54:18;;;;;;;57.58;36.88;;;1.80;97.40;;;;;;5070690;28;20041;-81
2023/12/08 10:56:45;;;;;;;55.05;31.35;;;1.80;97.50;;;;;;5078920;28;20083;-81
2023/12/08 10:59:16;;;;;;;67.95;36.42;;;1.80;97.40;;;;;;5083383;28;20361;-81
2023/12/08 11:01:42;;;;;;;50.60;28.92;;;1.90;97.40;;;;;;5078645;28;20036;-82
2023/12/08 11:04:12;;;;;;;63.53;35.17;;;1.90;97.40;;;;;;5079398;28;20146;-81
2023/12/08 11:06:46;;;;;;;52.60;29.50;;;1.90;97.50;;;;;;5065270;28;20507;-81
2023/12/08 11:09:15;;;;;;;;;;;1.90;97.50;;;;;;5075647;28;20037;-80
2023/12/08 11:11:51;;;;;;;111.63;75.60;;;1.90;97.60;;;;;;5061352;28;19967;-81
2023/12/08 11:14:35;;;;;;;76.30;44.00;;;1.90;97.50;;;;;;5095662;28;20040;-79
2023/12/08 11:17:07;;;;;;;69.03;40.72;;;1.90;97.60;;;;;;5120922;27;20688;-79
2023/12/08 11:19:34;;;;;;;59.22;31.58;;;1.90;97.50;;;;;;5086191;28;20036;-82
2023/12/08 11:22:00;;;;;;;56.25;30.20;;;1.90;97.60;;;;;;5046967;28;20051;-81
2023/12/08 11:24:28;;;;;;;72.07;44.35;;;2.00;97.60;;;;;;5069220;28;20035;-81
2023/12/08 11:27:03;;;;;;;62.35;31.40;;;2.00;97.60;;;;;;5082798;28;20044;-81
2023/12/08 11:29:53;;;;;;;59.25;30.48;;;2.00;97.70;;;;;;5058594;28;20085;-82
2023/12/08 11:33:05;;;;;;;61.08;29.88;;;2.00;97.70;;;;;;5067568;28;20079;-81
2023/12/08 11:35:31;;;;;;;60.20;34.05;;;2.10;97.70;;;;;;5027322;28;20044;-80
2023/12/08 11:37:56;;;;;;;57.67;31.20;;;2.10;97.70;;;;;;5050055;28;20047;-82
2023/12/08 11:40:22;;;;;;;64.07;30.73;;;2.10;97.80;;;;;;5059983;28;20496;-82
2023/12/08 11:42:50;;;;;;;68.20;33.72;;;2.10;97.80;;;;;;5067892;28;20091;-82
2023/12/08 11:45:18;;;;;;;69.03;33.97;;;2.10;97.70;;;;;;5080747;28;20036;-82
2023/12/08 11:47:44;;;;;;;60.92;29.80;;;2.10;97.80;;;;;;5083229;28;20079;-81
2023/12/08 11:50:11;;;;;;;68.65;32.70;;;2.10;97.70;;;;;;5058724;28;20076;-79
2023/12/08 11:52:37;;;;;;;64.30;31.13;;;2.10;97.70;;;;;;5067219;28;20040;-81
2023/12/08 11:55:19;;;;;;;69.25;33.80;;;2.10;97.80;;;;;;5079383;28;20524;-82
2023/12/08 11:57:54;;;;;;;64.10;31.10;;;2.10;97.80;;;;;;5057598;28;20051;-82
2023/12/08 12:00:22;;;;;;;64.30;30.88;;;2.10;97.80;;;;;;5059987;28;20064;-83
2023/12/08 12:02:49;;;;;;;59.20;29.10;;;2.10;97.90;;;;;;5040429;28;20036;-84
2023/12/08 12:05:15;;;;;;;65.07;31.40;;;2.20;97.90;;;;;;5073403;28;20036;-81
2023/12/08 12:07:45;;;;;;;70.05;33.47;;;2.20;97.80;;;;;;5040156;28;20044;-81
2023/12/08 12:10:11;;;;;;;66.18;35.08;;;2.20;97.90;;;;;;5073652;28;20037;-83
2023/12/08 12:12:44;;;;;;;67.68;31.58;;;2.20;97.90;;;;;;5036886;28;20044;-82
2023/12/08 12:15:10;;;;;;;65.35;30.10;;;2.20;97.90;;;;;;5067030;28;20106;-81
2023/12/08 12:17:38;;;;;;;71.53;32.30;;;2.20;97.90;;;;;;5024018;28;20119;-80
2023/12/08 12:20:05;;;;;;;69.45;31.10;;;2.20;98.00;;;;;;5073688;28;20142;-82
2023/12/08 12:22:30;;;;;;;77.25;33.33;;;2.20;98.00;;;;;;5039855;28;20044;-82
2023/12/08 12:24:56;;;;;;;70.70;31.67;;;2.30;98.00;;;;;;5040245;28;20044;-80
2023/12/08 12:27:22;;;;;;;70.28;32.78;;;2.30;98.00;;;;;;5023633;28;20094;-83
2023/12/08 12:29:48;;;;;;;72.10;31.35;;;2.30;98.10;;;;;;5040463;28;20047;-80
2023/12/08 12:32:14;;;;;;;75.82;34.83;;;2.30;98.10;;;;;;5045748;28;20040;-80
2023/12/08 12:34:40;;;;;;;73.18;33.63;;;2.30;98.10;;;;;;5076419;28;20078;-82